createdAt,value
2023-03-26T00:00:44.298Z,13.85
2023-03-26T00:06:12.920Z,11.68
2023-03-26T00:11:17.616Z,10.44
2023-03-26T00:16:21.197Z,13.12
2023-03-26T00:21:28.142Z,13.48
2023-03-26T00:26:33.888Z,11.23
2023-03-26T00:31:39.920Z,12.57
2023-03-26T00:36:44.119Z,13.51
2023-03-26T00:41:46.909Z,11.42
2023-03-26T00:46:49.814Z,13.11
2023-03-26T00:51:53.224Z,12.34
2023-03-26T00:56:56.147Z,11.10
2023-03-26T01:01:59.181Z,13.73
2023-03-26T01:07:09.933Z,13.73
2023-03-26T01:12:17.141Z,11.26
2023-03-26T01:17:20.343Z,11.51
2023-03-26T01:22:26.836Z,13.73
2023-03-26T01:27:54.634Z,11.77
2023-03-26T01:33:07.510Z,12.96
2023-03-26T01:38:52.248Z,13.58
2023-03-26T01:44:06.634Z,11.08
2023-03-26T01:49:13.852Z,12.75
2023-03-26T01:54:21.595Z,13.30
2023-03-26T01:59:42.765Z,11.09
2023-03-26T02:05:25.093Z,11.70
2023-03-26T02:10:30.972Z,13.94
2023-03-26T02:15:33.867Z,11.82
2023-03-26T02:20:37.527Z,11.89
2023-03-26T02:25:42.201Z,12.98
2023-03-26T02:30:46.165Z,10.92
2023-03-26T02:35:49.132Z,12.72
2023-03-26T02:40:53.557Z,13.43
2023-03-26T02:45:57.067Z,11.20
2023-03-26T02:51:01.217Z,12.15
2023-03-26T02:56:04.997Z,13.16
2023-03-26T03:01:08.363Z,11.05
2023-03-26T03:06:11.300Z,12.10
2023-03-26T03:11:22.305Z,14.27
2023-03-26T03:16:25.222Z,12.27
2023-03-26T03:21:29.292Z,11.85
2023-03-26T03:26:32.436Z,14.07
2023-03-26T03:31:35.444Z,12.19
2023-03-26T03:36:38.765Z,10.73
2023-03-26T03:41:42.100Z,13.47
2023-03-26T03:46:44.880Z,13.34
2023-03-26T03:51:47.980Z,11.19
2023-03-26T03:56:51.311Z,13.18
2023-03-26T04:01:54.173Z,12.78
2023-03-26T04:06:57.004Z,10.73
2023-03-26T04:11:59.909Z,12.70
2023-03-26T04:17:05.673Z,13.27
2023-03-26T04:22:09.611Z,11.57
2023-03-26T04:27:16.719Z,13.95
2023-03-26T04:32:34.435Z,12.56
2023-03-26T04:37:41.429Z,12.44
2023-03-26T04:42:47.121Z,14.27
2023-03-26T04:47:50.967Z,12.00
2023-03-26T04:52:57.190Z,11.98
2023-03-26T04:58:03.549Z,13.54
2023-03-26T05:03:10.250Z,11.40
2023-03-26T05:08:13.212Z,12.43
2023-03-26T05:13:16.111Z,13.23
2023-03-26T05:18:19.018Z,10.92
2023-03-26T05:23:21.920Z,11.82
2023-03-26T05:28:26.853Z,13.79
2023-03-26T05:33:30.010Z,11.71
2023-03-26T05:38:33.191Z,11.74
2023-03-26T05:43:36.500Z,14.30
2023-03-26T05:48:39.410Z,12.96
2023-03-26T05:53:42.308Z,12.60
2023-03-26T05:58:45.128Z,13.91
2023-03-26T06:03:50.740Z,12.19
2023-03-26T06:09:00.879Z,14.28
2023-03-26T06:14:07.101Z,13.97
2023-03-26T06:19:09.984Z,11.99
2023-03-26T06:24:13.048Z,14.48
2023-03-26T06:29:16.364Z,13.79
2023-03-26T06:34:19.565Z,13.42
2023-03-26T06:39:22.561Z,13.80
2023-03-26T06:44:26.109Z,12.47
2023-03-26T06:49:29.099Z,14.93
2023-03-26T06:54:32.001Z,13.63
2023-03-26T06:59:34.909Z,13.31
2023-03-26T07:04:38.463Z,14.10
2023-03-26T07:09:41.332Z,12.96
2023-03-26T07:14:44.481Z,14.18
2023-03-26T07:19:47.343Z,12.26
2023-03-26T07:24:51.112Z,13.48
2023-03-26T07:29:57.868Z,13.16
2023-03-26T07:35:22.445Z,11.83
2023-03-26T07:40:48.219Z,14.14
2023-03-26T07:45:51.279Z,12.64
2023-03-26T07:50:55.044Z,14.18
2023-03-26T07:56:04.391Z,13.43
2023-03-26T08:01:47.845Z,13.10
2023-03-26T08:06:58.632Z,13.51
2023-03-26T08:12:13.927Z,12.11
2023-03-26T08:17:20.121Z,13.60
2023-03-26T08:22:38.395Z,13.07
2023-03-26T08:27:43.506Z,13.80
2023-03-26T08:32:54.582Z,14.59
2023-03-26T08:37:58.286Z,12.45
2023-03-26T08:43:22.855Z,13.35
2023-03-26T08:48:47.364Z,13.05
2023-03-26T08:54:19.871Z,12.70
2023-03-26T08:59:41.609Z,12.95
2023-03-26T09:05:10.460Z,12.72
2023-03-26T09:10:40.153Z,14.38
2023-03-26T09:16:02.042Z,13.05
2023-03-26T09:21:10.666Z,12.39
2023-03-26T09:27:04.373Z,13.59
2023-03-26T09:32:07.444Z,12.79
2023-03-26T09:37:34.073Z,12.96
2023-03-26T09:42:49.404Z,13.04
2023-03-26T09:47:54.992Z,12.86
2023-03-26T09:53:09.349Z,12.57
2023-03-26T09:58:30.883Z,13.33
2023-03-26T10:04:06.246Z,13.48
2023-03-26T10:09:41.036Z,13.67
2023-03-26T10:14:59.872Z,13.82
2023-03-26T10:20:37.731Z,13.13
2023-03-26T10:26:11.622Z,14.11
2023-03-26T10:31:48.626Z,13.38
2023-03-26T10:37:08.876Z,13.62
2023-03-26T10:42:37.143Z,13.39
2023-03-26T10:48:12.395Z,13.53
2023-03-26T10:53:30.865Z,13.39
2023-03-26T10:58:48.562Z,12.72
2023-03-26T11:03:55.765Z,14.04
2023-03-26T11:09:26.377Z,13.15
2023-03-26T11:14:43.290Z,13.09
2023-03-26T11:19:57.890Z,13.10
2023-03-26T11:25:09.801Z,13.86
2023-03-26T11:30:28.391Z,13.30
2023-03-26T11:35:39.670Z,13.40
2023-03-26T11:40:50.695Z,12.61
2023-03-26T11:45:54.167Z,12.32
2023-03-26T11:51:04.467Z,12.88
2023-03-26T11:56:15.253Z,12.85
2023-03-26T12:01:30.147Z,12.11
2023-03-26T12:06:33.132Z,11.95
2023-03-26T12:11:36.444Z,11.85
2023-03-26T12:17:00.831Z,11.60
2023-03-26T12:22:04.368Z,10.94
2023-03-26T12:27:22.225Z,11.86
2023-03-26T12:32:35.510Z,11.30
2023-03-26T12:37:47.323Z,11.81
2023-03-26T12:44:46.607Z,12.41
2023-03-26T12:48:25.664Z,13.67
2023-03-26T12:53:34.706Z,14.50
2023-03-26T12:59:01.919Z,13.98
2023-03-26T13:04:24.514Z,13.75
2023-03-26T13:09:43.882Z,15.01
2023-03-26T13:14:58.619Z,13.52
2023-03-26T13:20:12.430Z,14.79
2023-03-26T13:25:21.158Z,13.24
2023-03-26T13:30:59.342Z,14.50
2023-03-26T13:36:24.001Z,14.13
2023-03-26T13:41:59.963Z,13.96
2023-03-26T13:47:15.012Z,13.22
2023-03-26T13:52:30.836Z,13.84
2023-03-26T13:57:39.671Z,13.51
2023-03-26T14:02:44.309Z,13.81
2023-03-26T14:07:57.464Z,13.92
2023-03-26T14:13:07.738Z,13.20
2023-03-26T14:18:22.830Z,15.40
2023-03-26T14:23:45.495Z,13.77
2023-03-26T14:28:57.004Z,14.61
2023-03-26T14:34:52.570Z,14.58
2023-03-26T14:39:55.602Z,14.38
2023-03-26T14:45:07.358Z,12.95
2023-03-26T14:50:48.663Z,12.95
2023-03-26T14:55:54.335Z,11.75
2023-03-26T15:01:19.097Z,12.90
2023-03-26T15:06:42.023Z,12.05
2023-03-26T15:12:12.494Z,12.62
2023-03-26T15:17:35.878Z,13.23
2023-03-26T15:22:54.259Z,12.67
2023-03-26T15:28:35.316Z,13.36
2023-03-26T15:33:47.128Z,12.93
2023-03-26T15:39:17.989Z,14.11
2023-03-26T15:44:40.959Z,13.64
2023-03-26T15:50:35.986Z,12.30
2023-03-26T15:55:57.139Z,13.31
2023-03-26T16:01:19.834Z,12.64
2023-03-26T16:06:31.053Z,13.98
2023-03-26T16:11:50.072Z,12.14
2023-03-26T16:17:00.610Z,14.72
2023-03-26T16:22:15.530Z,14.45
2023-03-26T16:27:30.394Z,12.45
2023-03-26T16:32:35.608Z,12.95
2023-03-26T16:37:46.258Z,14.09
2023-03-26T16:43:26.966Z,11.58
2023-03-26T16:48:39.074Z,10.55
2023-03-26T16:53:46.172Z,13.78
2023-03-26T16:58:55.104Z,13.47
2023-03-26T17:04:20.624Z,11.27
2023-03-26T17:10:03.466Z,12.32
2023-03-26T17:15:41.313Z,14.61
2023-03-26T17:20:57.910Z,12.21
2023-03-26T17:26:08.661Z,10.69
2023-03-26T17:31:35.364Z,11.72
2023-03-26T17:36:42.478Z,14.01
2023-03-26T17:41:51.132Z,11.59
2023-03-26T17:46:57.052Z,12.56
2023-03-26T17:52:17.061Z,12.04
2023-03-26T17:57:30.837Z,12.52
2023-03-26T18:02:47.763Z,13.75
2023-03-26T18:08:03.676Z,11.08
2023-03-26T18:13:23.099Z,12.44
2023-03-26T18:18:37.368Z,14.03
2023-03-26T18:23:47.666Z,11.45
2023-03-26T18:28:54.442Z,11.71
2023-03-26T18:34:09.526Z,14.28
2023-03-26T18:39:13.577Z,12.16
2023-03-26T18:44:18.672Z,10.35
2023-03-26T18:49:24.157Z,12.50
2023-03-26T18:54:34.288Z,14.29
2023-03-26T18:59:41.436Z,11.85
2023-03-26T19:04:47.108Z,11.56
2023-03-26T19:09:56.063Z,13.54
2023-03-26T19:15:10.874Z,11.92
2023-03-26T19:20:21.073Z,12.93
2023-03-26T19:25:37.133Z,11.13
2023-03-26T19:30:42.221Z,13.20
2023-03-26T19:35:51.924Z,12.13
2023-03-26T19:40:57.396Z,10.14
2023-03-26T19:46:01.339Z,12.01
2023-03-26T19:51:06.299Z,10.04
2023-03-26T19:56:10.237Z,11.55
2023-03-26T20:01:21.556Z,10.01
2023-03-26T20:06:41.719Z,9.75
2023-03-26T20:11:47.203Z,9.65
2023-03-26T20:16:50.137Z,9.51
2023-03-26T20:21:53.542Z,10.43
2023-03-26T20:26:56.245Z,8.05
2023-03-26T20:31:59.326Z,10.17
2023-03-26T20:37:02.249Z,9.43
2023-03-26T20:42:05.331Z,7.72
2023-03-26T20:47:11.005Z,10.48
2023-03-26T20:52:15.538Z,8.70
2023-03-26T20:57:18.793Z,8.51
2023-03-26T21:02:21.962Z,9.44
2023-03-26T21:07:24.868Z,7.06
2023-03-26T21:12:33.619Z,8.69
2023-03-26T21:17:37.485Z,9.05
2023-03-26T21:23:07.678Z,6.73
2023-03-26T21:28:39.753Z,7.83
2023-03-26T21:33:45.870Z,9.51
2023-03-26T21:38:50.645Z,7.12
2023-03-26T21:43:53.594Z,5.70
2023-03-26T21:48:56.907Z,6.57
2023-03-26T21:54:00.506Z,9.77
2023-03-26T21:59:24.628Z,7.74
2023-03-26T22:04:48.934Z,5.73
2023-03-26T22:09:52.253Z,6.98
2023-03-26T22:14:55.064Z,9.14
2023-03-26T22:19:57.954Z,6.71
2023-03-26T22:25:01.305Z,5.56
2023-03-26T22:30:04.639Z,8.83
2023-03-26T22:35:08.355Z,8.21
2023-03-26T22:40:14.699Z,5.83
2023-03-26T22:45:17.701Z,6.44
2023-03-26T22:50:20.804Z,8.85
2023-03-26T22:55:28.994Z,6.57
2023-03-26T23:00:32.959Z,4.81
2023-03-26T23:05:35.862Z,6.29
2023-03-26T23:10:42.595Z,8.47
2023-03-26T23:15:45.609Z,5.95
2023-03-26T23:20:55.488Z,4.55
2023-03-26T23:26:03.871Z,7.60
2023-03-26T23:31:09.509Z,7.78
2023-03-26T23:36:14.802Z,5.33
2023-03-26T23:41:21.750Z,5.92
2023-03-26T23:46:31.072Z,8.19
2023-03-26T23:51:36.214Z,5.46
2023-03-26T23:56:39.128Z,5.76
